Wheeler Sack Army Air Field
KGTB : now visible

Airfield :











YOU CAN JOIN US ON...

 
LOGIN :

Register | Disclaimer

   EN    FR    IT 

 









Legend :    VFR   Marginal VFR   IFR   Intensive IFR   Very Intensive IFR
Visi :
Ceiling :
>= 8 km
>= 3000ft
5 to 8 km
1000 to 3000 ft
1500m to 5 km
500 to 1000 ft
800 to 1500m
200 to 500 ft
< 800m
< 200 ft
Symbols :   Thunderstorms  Fog  Heavy snow  Heavy precipitations  Wind > 20 kt







- Airport Elevation : 688 ft


KGTB - Wheeler Sack Army Air Field

CURRENT METAR :
  • 200856Z AUTO 14007KT 10SM CLR 10/08 A3020 RMK AO2 SLP227 T00990077 55000

EXPIRED METARs :
  • 200756Z AUTO 14008KT 10SM CLR 10/08 A3020 RMK AO2 SLP227 T01010079
  • 200656Z AUTO 14009KT 10SM CLR 10/08 A3020 RMK AO2 SLP227 T01040082

TAF TAF KGTB
Valid from the 20 at 09:00 until the 21 at 15:00 UTC


200900Z 2009/2115 VRB06KT 9999 FEW150 QNH3016INS
BECMG 2113/2114 22006KT 9999 FEW030 QNH3021INS TX22/2018Z TN10/2010Z
No reported NOTAMs for that airfield.



MET'MAP, your aeronautical weather chart ! - Copyright ORBIFLY December 2007 - Disclaimer

ORBIFLY MET'MAP TEAM :

Programming & Development : Alexandra Zaïnal
Concept & Development : Baudouin d'Aumeries
Co-Development & Prog : Marc-Olivier Méhu
Technical & hardware support : Manuel Goepfert

Contact : metmap@orbifly.com




SOURCES & CREDITS :

   NOAA       Earth
Advisory